createdAt,value
2022-09-28T00:02:19.592Z,8.25
2022-09-28T00:04:49.220Z,8.27
2022-09-28T00:07:18.771Z,8.28
2022-09-28T00:09:48.296Z,8.30
2022-09-28T00:12:21.161Z,8.32
2022-09-28T00:14:51.286Z,8.30
2022-09-28T00:17:22.805Z,8.31
2022-09-28T00:19:52.923Z,8.29
2022-09-28T00:22:22.508Z,8.29
2022-09-28T00:24:52.077Z,8.26
2022-09-28T00:27:24.237Z,8.26
2022-09-28T00:29:54.486Z,8.24
2022-09-28T00:32:25.090Z,8.23
2022-09-28T00:34:55.344Z,8.22
2022-09-28T00:37:24.918Z,8.20
2022-09-28T00:39:55.482Z,8.18
2022-09-28T00:42:28.861Z,8.16
2022-09-28T00:44:59.040Z,8.14
2022-09-28T00:47:40.745Z,8.15
2022-09-28T00:50:15.354Z,8.12
2022-09-28T00:52:48.677Z,8.12
2022-09-28T00:55:21.204Z,8.08
2022-09-28T00:57:56.138Z,8.07
2022-09-28T01:00:25.765Z,8.07
2022-09-28T01:02:55.341Z,8.09
2022-09-28T01:05:25.043Z,8.08
2022-09-28T01:07:54.616Z,8.09
2022-09-28T01:10:24.454Z,8.08
2022-09-28T01:12:58.863Z,8.09
2022-09-28T01:15:30.625Z,8.12
2022-09-28T01:18:10.357Z,8.12
2022-09-28T01:21:06.324Z,8.12
2022-09-28T01:23:46.848Z,8.10
2022-09-28T01:26:50.196Z,8.09
2022-09-28T01:29:29.462Z,8.08
2022-09-28T01:32:06.107Z,8.08
2022-09-28T01:34:40.665Z,8.08
2022-09-28T01:37:13.001Z,8.07
2022-09-28T01:39:45.297Z,8.07
2022-09-28T01:42:18.387Z,8.08
2022-09-28T01:44:52.920Z,8.08
2022-09-28T01:47:24.413Z,8.08
2022-09-28T01:49:57.467Z,8.09
2022-09-28T01:52:29.529Z,8.09
2022-09-28T01:55:01.896Z,8.10
2022-09-28T01:57:37.545Z,8.10
2022-09-28T02:00:13.067Z,8.13
2022-09-28T02:02:53.970Z,8.11
2022-09-28T02:05:29.913Z,8.10
2022-09-28T02:08:02.498Z,8.09
2022-09-28T02:10:36.516Z,8.09
2022-09-28T02:13:10.857Z,8.07
2022-09-28T02:15:43.435Z,8.04
2022-09-28T02:18:13.223Z,8.03
2022-09-28T02:20:44.797Z,8.04
2022-09-28T02:23:14.589Z,8.05
2022-09-28T02:25:49.947Z,8.06
2022-09-28T02:28:21.618Z,8.08
2022-09-28T02:30:55.472Z,8.09
2022-09-28T02:33:28.196Z,8.10
2022-09-28T02:35:58.480Z,8.11
2022-09-28T02:38:28.783Z,8.11
2022-09-28T02:41:07.030Z,8.15
2022-09-28T02:43:42.026Z,8.14
2022-09-28T02:46:23.384Z,8.13
2022-09-28T02:49:22.119Z,8.13
2022-09-28T02:52:07.078Z,8.14
2022-09-28T02:54:53.545Z,8.14
2022-09-28T02:57:34.656Z,8.15
2022-09-28T03:00:08.804Z,8.16
2022-09-28T03:02:43.122Z,8.18
2022-09-28T03:05:18.561Z,8.18
2022-09-28T03:07:53.631Z,8.18
2022-09-28T03:10:28.564Z,8.19
2022-09-28T03:12:58.782Z,8.22
2022-09-28T03:15:30.769Z,8.23
2022-09-28T03:18:03.047Z,8.24
2022-09-28T03:20:34.110Z,8.25
2022-09-28T03:25:54.908Z,8.27
2022-09-28T03:28:24.741Z,8.28
2022-09-28T03:30:55.200Z,8.28
2022-09-28T03:33:27.722Z,8.28
2022-09-28T03:35:57.358Z,8.29
2022-09-28T03:38:27.178Z,8.29
2022-09-28T03:40:57.954Z,8.31
2022-09-28T03:43:28.409Z,8.30
2022-09-28T03:46:01.860Z,8.30
2022-09-28T03:48:37.738Z,8.32
2022-09-28T03:51:09.688Z,8.32
2022-09-28T03:53:41.436Z,8.35
2022-09-28T03:56:13.684Z,8.36
2022-09-28T03:58:44.639Z,8.38
2022-09-28T04:01:17.883Z,8.38
2022-09-28T04:03:55.959Z,8.38
2022-09-28T04:06:25.930Z,8.38
2022-09-28T04:08:55.812Z,8.39
2022-09-28T04:11:25.411Z,8.42
2022-09-28T04:13:54.956Z,8.41
2022-09-28T04:16:25.790Z,8.40
2022-09-28T04:19:08.272Z,8.38
2022-09-28T04:21:58.178Z,8.37
2022-09-28T04:24:28.049Z,8.38
2022-09-28T04:27:18.146Z,8.40
2022-09-28T04:29:45.296Z,8.42
2022-09-28T04:32:16.615Z,8.44
2022-09-28T04:34:49.285Z,8.45
2022-09-28T04:37:19.456Z,8.47
2022-09-28T04:39:49.070Z,8.48
2022-09-28T04:42:21.665Z,8.48
2022-09-28T04:44:52.638Z,8.50
2022-09-28T04:47:22.202Z,8.52
2022-09-28T04:50:12.891Z,8.54
2022-09-28T04:53:03.596Z,8.55
2022-09-28T04:55:33.255Z,8.53
2022-09-28T04:58:03.575Z,8.53
2022-09-28T05:00:35.977Z,8.54
2022-09-28T05:03:15.141Z,8.53
2022-09-28T05:06:08.041Z,8.53
2022-09-28T05:08:46.968Z,8.52
2022-09-28T05:11:18.387Z,8.52
2022-09-28T05:13:50.363Z,8.51
2022-09-28T05:16:20.848Z,8.51
2022-09-28T05:19:10.785Z,8.49
2022-09-28T05:21:46.945Z,8.46
2022-09-28T05:24:16.849Z,8.44
2022-09-28T05:26:51.899Z,8.42
2022-09-28T05:29:22.468Z,8.39
2022-09-28T05:32:10.826Z,8.40
2022-09-28T05:35:01.216Z,8.43
2022-09-28T05:37:42.919Z,8.46
2022-09-28T05:40:13.765Z,8.49
2022-09-28T05:42:43.608Z,8.51
2022-09-28T05:45:13.659Z,8.53
2022-09-28T05:47:46.230Z,8.54
2022-09-28T05:50:18.799Z,8.58
2022-09-28T05:53:00.360Z,8.59
2022-09-28T05:55:30.544Z,8.60
2022-09-28T05:58:03.499Z,8.62
2022-09-28T06:00:34.585Z,8.63
2022-09-28T06:03:08.899Z,8.62
2022-09-28T06:05:39.627Z,8.63
2022-09-28T06:08:13.012Z,8.62
2022-09-28T06:10:47.078Z,8.63
2022-09-28T06:13:16.973Z,8.62
2022-09-28T06:15:46.615Z,8.63
2022-09-28T06:18:17.554Z,8.64
2022-09-28T06:21:10.853Z,8.63
2022-09-28T06:23:49.411Z,8.63
2022-09-28T06:26:20.764Z,8.61
2022-09-28T06:28:50.345Z,8.61
2022-09-28T06:31:23.704Z,8.61
2022-09-28T06:33:53.894Z,8.64
2022-09-28T06:36:23.885Z,8.69
2022-09-28T06:38:56.083Z,8.72
2022-09-28T06:41:25.983Z,8.75
2022-09-28T06:43:56.420Z,8.77
2022-09-28T06:46:44.525Z,8.76
2022-09-28T06:49:29.219Z,8.76
2022-09-28T06:52:30.634Z,8.74
2022-09-28T06:55:11.027Z,8.77
2022-09-28T06:57:47.602Z,8.82
2022-09-28T07:00:18.699Z,8.85
2022-09-28T07:02:49.810Z,8.86
2022-09-28T07:05:41.434Z,8.85
2022-09-28T07:08:40.761Z,8.83
2022-09-28T07:11:32.668Z,8.85
2022-09-28T07:14:40.718Z,8.90
2022-09-28T07:17:14.902Z,8.94
2022-09-28T07:19:45.781Z,8.97
2022-09-28T07:22:18.708Z,9.01
2022-09-28T07:24:49.640Z,9.03
2022-09-28T07:27:40.392Z,9.05
2022-09-28T07:30:29.295Z,9.10
2022-09-28T07:33:10.896Z,9.18
2022-09-28T07:35:53.671Z,9.27
2022-09-28T07:38:26.089Z,9.32
2022-09-28T07:41:08.719Z,9.35
2022-09-28T07:43:42.367Z,9.41
2022-09-28T07:46:14.017Z,9.51
2022-09-28T07:48:51.787Z,9.55
2022-09-28T07:51:36.881Z,9.57
2022-09-28T07:54:39.806Z,9.61
2022-09-28T07:57:25.099Z,9.64
2022-09-28T08:00:19.089Z,9.67
2022-09-28T08:02:50.742Z,9.70
2022-09-28T08:05:24.670Z,9.76
2022-09-28T08:07:57.752Z,9.85
2022-09-28T08:10:29.593Z,10.00
2022-09-28T08:13:09.164Z,10.22
2022-09-28T08:15:58.421Z,10.45
2022-09-28T08:18:51.681Z,10.62
2022-09-28T08:21:34.588Z,10.73
2022-09-28T08:24:04.397Z,10.78
2022-09-28T08:26:33.961Z,10.86
2022-09-28T08:29:03.530Z,10.90
2022-09-28T08:31:56.348Z,10.91
2022-09-28T08:34:38.631Z,10.90
2022-09-28T08:37:20.452Z,10.87
2022-09-28T08:40:11.594Z,10.90
2022-09-28T08:43:01.462Z,10.91
2022-09-28T08:45:49.777Z,10.95
2022-09-28T08:49:13.476Z,10.95
2022-09-28T08:52:06.866Z,10.86
2022-09-28T08:54:51.825Z,10.74
2022-09-28T08:57:37.221Z,10.60
2022-09-28T09:00:10.932Z,10.53
2022-09-28T09:02:42.774Z,10.46
2022-09-28T09:05:21.818Z,10.44
2022-09-28T09:08:11.937Z,10.41
2022-09-28T09:10:51.497Z,10.35
2022-09-28T09:13:59.854Z,10.23
2022-09-28T09:16:38.170Z,10.18
2022-09-28T09:19:37.965Z,10.25
2022-09-28T09:22:28.684Z,10.36
2022-09-28T09:25:03.516Z,10.58
2022-09-28T09:27:45.478Z,10.78
2022-09-28T09:30:19.929Z,11.03
2022-09-28T09:33:05.287Z,11.27
2022-09-28T09:36:01.164Z,11.31
2022-09-28T09:39:00.905Z,11.24
2022-09-28T09:41:59.817Z,11.12
2022-09-28T09:45:12.415Z,11.05
2022-09-28T09:47:59.186Z,11.06
2022-09-28T09:50:32.437Z,11.10
2022-09-28T09:53:06.282Z,11.13
2022-09-28T09:55:43.407Z,11.23
2022-09-28T09:58:39.302Z,11.41
2022-09-28T10:01:23.888Z,11.71
2022-09-28T10:04:19.718Z,12.00
2022-09-28T10:06:51.118Z,12.19
2022-09-28T10:09:25.358Z,12.31
2022-09-28T10:11:58.637Z,12.33
2022-09-28T10:14:28.659Z,12.25
2022-09-28T10:17:08.051Z,12.15
2022-09-28T10:20:16.198Z,12.07
2022-09-28T10:23:12.300Z,12.04
2022-09-28T10:25:41.967Z,11.97
2022-09-28T10:28:19.013Z,11.92
2022-09-28T10:30:48.724Z,11.92
2022-09-28T10:33:33.263Z,11.93
2022-09-28T10:36:04.321Z,11.95
2022-09-28T10:38:37.542Z,11.91
2022-09-28T10:41:16.728Z,11.85
2022-09-28T10:44:06.258Z,11.82
2022-09-28T10:46:45.832Z,11.85
2022-09-28T10:49:19.927Z,11.90
2022-09-28T10:51:58.917Z,11.97
2022-09-28T10:54:33.860Z,12.11
2022-09-28T10:57:04.077Z,12.27
2022-09-28T10:59:49.524Z,12.48
2022-09-28T11:02:35.897Z,12.68
2022-09-28T11:05:10.682Z,12.84
2022-09-28T11:07:48.606Z,12.97
2022-09-28T11:10:25.172Z,13.10
2022-09-28T11:12:57.398Z,13.21
2022-09-28T11:15:33.782Z,13.29
2022-09-28T11:18:22.470Z,13.39
2022-09-28T11:20:52.548Z,13.41
2022-09-28T11:23:25.311Z,13.36
2022-09-28T11:26:02.274Z,13.21
2022-09-28T11:28:37.544Z,13.06
2022-09-28T11:31:16.720Z,12.85
2022-09-28T11:34:09.985Z,12.73
2022-09-28T11:36:56.457Z,12.77
2022-09-28T11:39:34.086Z,12.94
2022-09-28T11:42:16.494Z,13.15
2022-09-28T11:44:49.144Z,13.33
2022-09-28T11:47:41.106Z,13.43
2022-09-28T11:50:24.135Z,13.47
2022-09-28T11:53:01.022Z,13.53
2022-09-28T11:55:36.059Z,13.51
2022-09-28T11:58:08.639Z,13.46
2022-09-28T12:00:41.088Z,13.40
2022-09-28T12:03:17.314Z,13.35
2022-09-28T12:05:51.000Z,13.27
2022-09-28T12:08:27.362Z,13.22
2022-09-28T12:11:05.124Z,13.22
2022-09-28T12:13:57.505Z,13.28
2022-09-28T12:17:04.940Z,13.31
2022-09-28T12:19:27.017Z,13.33
2022-09-28T12:21:59.176Z,13.30
2022-09-28T12:24:31.572Z,13.31
2022-09-28T12:27:06.073Z,13.25
2022-09-28T12:29:43.681Z,13.23
2022-09-28T12:32:17.408Z,13.18
2022-09-28T12:34:49.562Z,13.09
2022-09-28T12:37:31.412Z,12.90
2022-09-28T12:40:22.436Z,12.55
2022-09-28T12:43:13.883Z,12.22
2022-09-28T12:46:13.963Z,12.01
2022-09-28T12:49:43.608Z,11.94
2022-09-28T12:51:54.992Z,11.96
2022-09-28T12:54:40.302Z,11.97
2022-09-28T12:57:26.003Z,12.05
2022-09-28T13:00:02.352Z,12.21
2022-09-28T13:03:06.057Z,12.48
2022-09-28T13:06:01.832Z,12.78
2022-09-28T13:08:37.937Z,13.03
2022-09-28T13:11:15.773Z,13.24
2022-09-28T13:13:51.838Z,13.41
2022-09-28T13:16:26.508Z,13.56
2022-09-28T13:19:01.245Z,13.69
2022-09-28T13:21:38.185Z,13.79
2022-09-28T13:24:31.580Z,13.86
2022-09-28T13:27:07.199Z,13.95
2022-09-28T13:32:07.482Z,14.02
2022-09-28T13:34:37.937Z,14.00
2022-09-28T13:37:13.652Z,13.87
2022-09-28T13:39:56.803Z,13.72
2022-09-28T13:42:31.846Z,13.64
2022-09-28T13:45:17.666Z,13.61
2022-09-28T13:47:58.014Z,13.62
2022-09-28T13:50:36.037Z,13.70
2022-09-28T13:53:12.156Z,13.84
2022-09-28T13:55:56.512Z,13.97
2022-09-28T13:58:27.268Z,14.02
2022-09-28T14:01:00.496Z,13.93
2022-09-28T14:03:31.629Z,13.88
2022-09-28T14:06:25.669Z,13.90
2022-09-28T14:09:30.111Z,13.98
2022-09-28T14:12:04.373Z,14.22
2022-09-28T14:14:49.542Z,14.49
2022-09-28T14:17:54.912Z,14.54
2022-09-28T14:20:27.757Z,14.51
2022-09-28T14:23:22.523Z,14.39
2022-09-28T14:26:01.815Z,14.25
2022-09-28T14:28:43.463Z,14.12
2022-09-28T14:31:18.314Z,13.99
2022-09-28T14:33:57.655Z,13.92
2022-09-28T14:36:41.170Z,13.83
2022-09-28T14:39:34.576Z,13.68
2022-09-28T14:42:11.302Z,13.58
2022-09-28T14:45:10.986Z,13.69
2022-09-28T14:47:45.334Z,13.98
2022-09-28T14:50:25.879Z,14.24
2022-09-28T14:52:56.583Z,14.38
2022-09-28T14:55:30.480Z,14.37
2022-09-28T14:58:01.230Z,14.34
2022-09-28T15:00:32.083Z,14.32
2022-09-28T15:03:11.513Z,14.30
2022-09-28T15:05:47.105Z,14.26
2022-09-28T15:08:18.845Z,14.22
2022-09-28T15:10:49.414Z,14.20
2022-09-28T15:13:23.352Z,14.11
2022-09-28T15:15:55.332Z,14.01
2022-09-28T15:18:57.503Z,13.90
2022-09-28T15:21:34.502Z,13.82
2022-09-28T15:24:04.173Z,13.78
2022-09-28T15:26:35.218Z,13.77
2022-09-28T15:29:05.704Z,13.76
2022-09-28T15:31:38.586Z,13.77
2022-09-28T15:34:27.474Z,13.68
2022-09-28T15:36:57.005Z,13.58
2022-09-28T15:39:31.473Z,13.49
2022-09-28T15:42:02.259Z,13.42
2022-09-28T15:44:33.214Z,13.31
2022-09-28T15:47:23.882Z,13.24
2022-09-28T15:50:01.540Z,13.14
2022-09-28T15:52:36.748Z,13.08
2022-09-28T15:55:09.433Z,13.00
2022-09-28T15:57:41.449Z,12.95
2022-09-28T16:00:26.632Z,12.89
2022-09-28T16:03:05.495Z,12.84
2022-09-28T16:05:43.433Z,12.76
2022-09-28T16:08:21.450Z,12.63
2022-09-28T16:11:00.821Z,12.47
2022-09-28T16:13:30.388Z,12.24
2022-09-28T16:16:01.284Z,11.83
2022-09-28T16:18:33.880Z,11.31
2022-09-28T16:21:37.578Z,10.79
2022-09-28T16:24:07.481Z,10.36
2022-09-28T16:26:39.289Z,10.06
2022-09-28T16:29:12.222Z,9.84
2022-09-28T16:31:43.820Z,9.61
2022-09-28T16:34:22.436Z,9.42
2022-09-28T16:36:54.566Z,9.28
2022-09-28T16:39:25.024Z,9.19
2022-09-28T16:41:58.062Z,9.09
2022-09-28T16:44:30.222Z,9.01
2022-09-28T16:47:00.923Z,8.96
2022-09-28T16:49:32.241Z,8.92
2022-09-28T16:52:04.735Z,8.91
2022-09-28T16:54:46.717Z,8.89
2022-09-28T16:57:18.743Z,8.89
2022-09-28T16:59:48.287Z,8.88
2022-09-28T17:02:45.322Z,8.89
2022-09-28T17:05:13.538Z,8.91
2022-09-28T17:07:46.400Z,8.93
2022-09-28T17:10:19.720Z,8.94
2022-09-28T17:12:49.358Z,8.93
2022-09-28T17:15:19.492Z,8.93
2022-09-28T17:17:49.337Z,8.93
2022-09-28T17:20:22.878Z,8.91
2022-09-28T17:22:55.379Z,8.91
2022-09-28T17:25:26.122Z,8.92
2022-09-28T17:27:58.259Z,8.91
2022-09-28T17:30:28.218Z,8.88
2022-09-28T17:33:00.019Z,8.85
2022-09-28T17:35:29.943Z,8.83
2022-09-28T17:38:02.633Z,8.83
2022-09-28T17:40:32.792Z,8.81
2022-09-28T17:43:05.792Z,8.80
2022-09-28T17:45:39.021Z,8.78
2022-09-28T17:48:09.143Z,8.74
2022-09-28T17:50:41.220Z,8.69
2022-09-28T17:53:15.509Z,8.67
2022-09-28T17:55:45.696Z,8.62
2022-09-28T17:58:18.817Z,8.60
2022-09-28T18:00:49.166Z,8.57
2022-09-28T18:03:20.016Z,8.56
2022-09-28T18:05:51.003Z,8.57
2022-09-28T18:08:24.015Z,8.58
2022-09-28T18:10:54.667Z,8.60
2022-09-28T18:13:24.328Z,8.61
2022-09-28T18:15:54.376Z,8.62
2022-09-28T18:18:24.226Z,8.62
2022-09-28T18:20:54.424Z,8.60
2022-09-28T18:23:26.687Z,8.56
2022-09-28T18:25:56.324Z,8.50
2022-09-28T18:28:26.076Z,8.42
2022-09-28T18:30:55.822Z,8.32
2022-09-28T18:33:25.450Z,8.23
2022-09-28T18:35:55.941Z,8.14
2022-09-28T18:38:28.198Z,8.05
2022-09-28T18:40:57.844Z,7.95
2022-09-28T18:43:27.415Z,7.86
2022-09-28T18:45:57.382Z,7.78
2022-09-28T18:48:29.500Z,7.70
2022-09-28T18:50:59.093Z,7.62
2022-09-28T18:53:31.366Z,7.55
2022-09-28T18:56:01.330Z,7.49
2022-09-28T18:58:30.897Z,7.42
2022-09-28T19:01:25.231Z,7.34
2022-09-28T19:03:50.582Z,7.27
2022-09-28T19:06:20.221Z,7.22
2022-09-28T19:08:57.468Z,7.17
2022-09-28T19:11:27.727Z,7.13
2022-09-28T19:13:58.412Z,7.11
2022-09-28T19:16:30.028Z,7.06
2022-09-28T19:19:00.978Z,7.05
2022-09-28T19:21:30.505Z,7.02
2022-09-28T19:24:04.045Z,7.00
2022-09-28T19:26:33.956Z,6.98
2022-09-28T19:29:04.326Z,6.97
2022-09-28T19:31:34.066Z,6.97
2022-09-28T19:34:03.604Z,6.93
2022-09-28T19:36:33.680Z,6.91
2022-09-28T19:39:07.190Z,6.88
2022-09-28T19:41:44.889Z,6.86
2022-09-28T19:44:24.756Z,6.83
2022-09-28T19:46:55.990Z,6.79
2022-09-28T19:49:26.586Z,6.75
2022-09-28T19:52:15.181Z,6.74
2022-09-28T19:54:56.663Z,6.75
2022-09-28T19:57:27.584Z,6.77
2022-09-28T20:00:02.108Z,6.84
2022-09-28T20:02:35.576Z,6.89
2022-09-28T20:05:05.545Z,6.92
2022-09-28T20:07:36.185Z,6.97
2022-09-28T20:10:10.190Z,7.02
2022-09-28T20:12:42.258Z,7.05
2022-09-28T20:15:12.959Z,7.07
2022-09-28T20:17:42.465Z,7.07
2022-09-28T20:20:12.268Z,7.07
2022-09-28T20:22:42.444Z,7.07
2022-09-28T20:25:14.625Z,7.07
2022-09-28T20:27:44.141Z,7.06
2022-09-28T20:30:15.064Z,7.04
2022-09-28T20:32:49.289Z,7.03
2022-09-28T20:35:32.248Z,6.98
2022-09-28T20:38:08.009Z,6.92
2022-09-28T20:40:41.065Z,6.87
2022-09-28T20:43:10.872Z,6.82
2022-09-28T20:45:40.466Z,6.75
2022-09-28T20:48:10.039Z,6.70
2022-09-28T20:50:40.641Z,6.65
2022-09-28T20:53:10.192Z,6.62
2022-09-28T20:55:42.294Z,6.62
2022-09-28T20:58:11.827Z,6.62
2022-09-28T21:00:41.471Z,6.58
2022-09-28T21:03:11.861Z,6.56
2022-09-28T21:05:41.554Z,6.53
2022-09-28T21:08:11.125Z,6.48
2022-09-28T21:10:46.105Z,6.44
2022-09-28T21:13:15.657Z,6.39
2022-09-28T21:15:45.221Z,6.38
2022-09-28T21:18:14.792Z,6.36
2022-09-28T21:20:48.126Z,6.34
2022-09-28T21:23:19.667Z,6.32
2022-09-28T21:26:03.763Z,6.30
2022-09-28T21:28:33.331Z,6.26
2022-09-28T21:31:03.218Z,6.26
2022-09-28T21:33:32.869Z,6.23
2022-09-28T21:36:03.670Z,6.21
2022-09-28T21:38:33.297Z,6.21
2022-09-28T21:41:05.753Z,6.21
2022-09-28T21:43:35.299Z,6.23
2022-09-28T21:46:05.492Z,6.25
2022-09-28T21:48:35.124Z,6.25
2022-09-28T21:51:06.314Z,6.26
2022-09-28T21:53:37.034Z,6.26
2022-09-28T21:56:11.113Z,6.29
2022-09-28T21:58:40.742Z,6.29
2022-09-28T22:01:14.763Z,6.32
2022-09-28T22:03:44.836Z,6.33
2022-09-28T22:06:14.863Z,6.34
2022-09-28T22:08:44.443Z,6.37
2022-09-28T22:11:18.795Z,6.39
2022-09-28T22:13:49.932Z,6.40
2022-09-28T22:16:21.545Z,6.38
2022-09-28T22:18:51.232Z,6.36
2022-09-28T22:21:22.400Z,6.35
2022-09-28T22:23:52.828Z,6.31
2022-09-28T22:26:26.828Z,6.30
2022-09-28T22:28:57.969Z,6.27
2022-09-28T22:31:29.221Z,6.24
2022-09-28T22:33:59.138Z,6.22
2022-09-28T22:36:30.385Z,6.18
2022-09-28T22:39:00.692Z,6.15
2022-09-28T22:41:32.868Z,6.14
2022-09-28T22:44:02.828Z,6.13
2022-09-28T22:46:33.674Z,6.11
2022-09-28T22:49:03.526Z,6.13
2022-09-28T22:51:33.613Z,6.11
2022-09-28T22:54:03.134Z,6.13
2022-09-28T22:56:35.324Z,6.12
2022-09-28T22:59:04.925Z,6.12
2022-09-28T23:01:34.994Z,6.14
2022-09-28T23:04:04.677Z,6.18
2022-09-28T23:06:34.422Z,6.21
2022-09-28T23:09:03.973Z,6.26
2022-09-28T23:11:36.083Z,6.29
2022-09-28T23:14:05.739Z,6.33
2022-09-28T23:16:35.280Z,6.35
2022-09-28T23:19:04.903Z,6.40
2022-09-28T23:21:34.457Z,6.46
2022-09-28T23:24:04.917Z,6.50
2022-09-28T23:26:37.254Z,6.56
2022-09-28T23:29:06.788Z,6.63
2022-09-28T23:31:36.855Z,6.67
2022-09-28T23:34:08.189Z,6.71
2022-09-28T23:36:37.774Z,6.74
2022-09-28T23:39:07.938Z,6.76
2022-09-28T23:41:40.325Z,6.76
2022-09-28T23:44:09.868Z,6.77
2022-09-28T23:46:39.454Z,6.80
2022-09-28T23:49:09.628Z,6.82
2022-09-28T23:51:39.232Z,6.84
2022-09-28T23:54:08.962Z,6.89
2022-09-28T23:56:41.148Z,6.91
2022-09-28T23:59:11.901Z,6.96
